createdAt,value
2022-11-24T00:01:07.600Z,6.47
2022-11-24T00:03:34.617Z,6.42
2022-11-24T00:06:10.997Z,6.40
2022-11-24T00:08:39.328Z,6.38
2022-11-24T00:11:11.734Z,6.34
2022-11-24T00:13:41.771Z,6.33
2022-11-24T00:16:10.412Z,6.30
2022-11-24T00:18:37.561Z,6.29
2022-11-24T00:21:04.539Z,6.27
2022-11-24T00:23:31.210Z,6.28
2022-11-24T00:26:14.948Z,6.26
2022-11-24T00:28:43.448Z,6.25
2022-11-24T00:31:22.237Z,6.28
2022-11-24T00:33:50.622Z,6.28
2022-11-24T00:36:18.662Z,6.26
2022-11-24T00:38:46.149Z,6.27
2022-11-24T00:41:13.216Z,6.29
2022-11-24T00:43:40.053Z,6.29
2022-11-24T00:46:06.732Z,6.30
2022-11-24T00:48:38.321Z,6.32
2022-11-24T00:51:10.776Z,6.32
2022-11-24T00:53:37.576Z,6.34
2022-11-24T00:56:04.825Z,6.35
2022-11-24T00:58:33.513Z,6.35
2022-11-24T01:01:13.731Z,6.37
2022-11-24T01:03:41.150Z,6.39
2022-11-24T01:06:11.003Z,6.38
2022-11-24T01:08:39.033Z,6.39
2022-11-24T01:11:18.768Z,6.40
2022-11-24T01:13:50.065Z,6.41
2022-11-24T01:16:29.593Z,6.43
2022-11-24T01:18:56.589Z,6.42
2022-11-24T01:21:23.591Z,6.42
2022-11-24T01:23:52.021Z,6.39
2022-11-24T01:26:21.180Z,6.38
2022-11-24T01:28:52.097Z,6.37
2022-11-24T01:31:22.936Z,6.37
2022-11-24T01:33:49.572Z,6.36
2022-11-24T01:36:16.274Z,6.32
2022-11-24T01:38:42.851Z,6.33
2022-11-24T01:41:18.703Z,6.32
2022-11-24T01:43:45.863Z,6.36
2022-11-24T01:46:22.807Z,6.40
2022-11-24T01:48:57.009Z,6.41
2022-11-24T01:51:26.738Z,6.41
2022-11-24T01:54:08.184Z,6.40
2022-11-24T01:56:37.736Z,6.38
2022-11-24T01:59:07.565Z,6.38
2022-11-24T02:01:34.690Z,6.39
2022-11-24T02:04:07.063Z,6.39
2022-11-24T02:06:38.531Z,6.41
2022-11-24T02:09:21.894Z,6.42
2022-11-24T02:11:48.467Z,6.48
2022-11-24T02:14:18.453Z,6.52
2022-11-24T02:16:49.995Z,6.55
2022-11-24T02:19:40.300Z,6.58
2022-11-24T02:22:16.535Z,6.60
2022-11-24T02:25:06.096Z,6.61
2022-11-24T02:27:32.834Z,6.64
2022-11-24T02:29:59.903Z,6.67
2022-11-24T02:32:28.050Z,6.66
2022-11-24T02:35:07.769Z,6.63
2022-11-24T02:37:40.175Z,6.58
2022-11-24T02:40:07.607Z,6.56
2022-11-24T02:42:50.160Z,6.56
2022-11-24T02:45:19.728Z,6.60
2022-11-24T02:47:46.420Z,6.59
2022-11-24T02:50:13.094Z,6.59
2022-11-24T02:52:39.697Z,6.60
2022-11-24T02:55:08.806Z,6.55
2022-11-24T02:57:35.383Z,6.59
2022-11-24T03:00:02.015Z,6.61
2022-11-24T03:02:28.646Z,6.63
2022-11-24T03:04:55.381Z,6.64
2022-11-24T03:07:25.047Z,6.66
2022-11-24T03:09:54.630Z,6.68
2022-11-24T03:12:21.226Z,6.70
2022-11-24T03:14:51.927Z,6.69
2022-11-24T03:17:18.530Z,6.69
2022-11-24T03:19:45.243Z,6.67
2022-11-24T03:22:22.798Z,6.69
2022-11-24T03:24:49.392Z,6.73
2022-11-24T03:27:16.005Z,6.81
2022-11-24T03:29:42.627Z,6.84
2022-11-24T03:32:09.188Z,6.88
2022-11-24T03:34:36.034Z,6.91
2022-11-24T03:37:02.869Z,6.96
2022-11-24T03:39:32.702Z,6.94
2022-11-24T03:41:59.322Z,6.96
2022-11-24T03:44:25.904Z,6.92
2022-11-24T03:46:52.630Z,6.96
2022-11-24T03:49:19.284Z,6.97
2022-11-24T03:51:46.612Z,7.04
2022-11-24T03:54:16.554Z,7.10
2022-11-24T03:56:43.195Z,7.13
2022-11-24T03:59:09.809Z,7.13
2022-11-24T04:01:36.498Z,7.11
2022-11-24T04:04:03.200Z,7.14
2022-11-24T04:06:29.799Z,7.15
2022-11-24T04:08:56.441Z,7.15
2022-11-24T04:11:41.658Z,7.15
2022-11-24T04:14:13.311Z,7.07
2022-11-24T04:16:40.072Z,7.04
2022-11-24T04:19:06.669Z,7.01
2022-11-24T04:21:34.878Z,7.01
2022-11-24T04:24:01.550Z,6.98
2022-11-24T04:26:28.183Z,6.98
2022-11-24T04:28:54.768Z,6.96
2022-11-24T04:31:28.959Z,6.93
2022-11-24T04:33:55.613Z,6.90
2022-11-24T04:36:22.147Z,6.89
2022-11-24T04:39:19.855Z,6.88
2022-11-24T04:41:37.309Z,6.93
2022-11-24T04:44:05.827Z,6.96
2022-11-24T04:46:32.480Z,6.98
2022-11-24T04:48:59.052Z,7.03
2022-11-24T04:51:25.612Z,7.02
2022-11-24T04:53:52.230Z,7.04
2022-11-24T04:56:18.810Z,7.02
2022-11-24T04:58:48.505Z,6.99
2022-11-24T05:01:15.432Z,6.98
2022-11-24T05:03:41.950Z,6.96
2022-11-24T05:06:16.146Z,6.97
2022-11-24T05:08:42.601Z,6.96
2022-11-24T05:11:09.166Z,6.90
2022-11-24T05:13:35.649Z,6.94
2022-11-24T05:16:02.264Z,6.96
2022-11-24T05:18:28.927Z,6.95
2022-11-24T05:20:55.749Z,6.92
2022-11-24T05:23:22.239Z,6.89
2022-11-24T05:25:48.776Z,6.86
2022-11-24T05:28:15.620Z,6.86
2022-11-24T05:30:42.451Z,6.82
2022-11-24T05:33:22.971Z,6.80
2022-11-24T05:35:50.103Z,6.77
2022-11-24T05:38:18.069Z,6.78
2022-11-24T05:40:44.888Z,6.77
2022-11-24T05:43:16.505Z,6.76
2022-11-24T05:45:47.421Z,6.71
2022-11-24T05:48:15.486Z,6.66
2022-11-24T05:50:42.302Z,6.69
2022-11-24T05:53:11.840Z,6.68
2022-11-24T05:55:40.028Z,6.69
2022-11-24T05:58:08.528Z,6.68
2022-11-24T06:00:36.791Z,6.67
2022-11-24T06:03:03.999Z,6.62
2022-11-24T06:05:30.740Z,6.68
2022-11-24T06:07:59.434Z,6.64
2022-11-24T06:10:26.057Z,6.57
2022-11-24T06:12:52.721Z,6.52
2022-11-24T06:15:19.499Z,6.43
2022-11-24T06:17:54.636Z,6.53
2022-11-24T06:20:22.129Z,6.61
2022-11-24T06:22:48.655Z,6.59
2022-11-24T06:25:16.265Z,6.52
2022-11-24T06:27:43.512Z,6.40
2022-11-24T06:30:10.899Z,6.36
2022-11-24T06:32:37.474Z,6.36
2022-11-24T06:35:04.803Z,6.29
2022-11-24T06:37:31.467Z,6.32
2022-11-24T06:40:00.206Z,6.32
2022-11-24T06:42:26.689Z,6.28
2022-11-24T06:44:55.950Z,6.24
2022-11-24T06:47:22.456Z,6.17
2022-11-24T06:49:48.979Z,6.20
2022-11-24T06:52:15.466Z,6.18
2022-11-24T06:54:45.264Z,6.21
2022-11-24T06:57:14.753Z,6.23
2022-11-24T06:59:41.305Z,6.28
2022-11-24T07:02:13.094Z,6.20
2022-11-24T07:04:39.619Z,6.25
2022-11-24T07:07:06.081Z,6.35
2022-11-24T07:09:32.587Z,6.41
2022-11-24T07:11:59.047Z,6.50
2022-11-24T07:14:25.548Z,6.56
2022-11-24T07:16:52.546Z,6.62
2022-11-24T07:19:25.711Z,6.64
2022-11-24T07:21:54.858Z,6.64
2022-11-24T07:24:21.335Z,6.70
2022-11-24T07:26:47.827Z,6.69
2022-11-24T07:29:14.326Z,6.64
2022-11-24T07:31:40.913Z,6.63
2022-11-24T07:34:07.411Z,6.62
2022-11-24T07:36:34.084Z,6.63
2022-11-24T07:39:00.569Z,6.71
2022-11-24T07:41:27.055Z,6.79
2022-11-24T07:43:56.759Z,6.86
2022-11-24T07:46:23.416Z,6.95
2022-11-24T07:48:49.965Z,6.97
2022-11-24T07:51:16.519Z,7.03
2022-11-24T07:53:43.483Z,7.08
2022-11-24T07:56:10.612Z,7.09
2022-11-24T07:58:40.721Z,7.15
2022-11-24T08:01:16.032Z,7.24
2022-11-24T08:03:43.383Z,7.26
2022-11-24T08:06:31.773Z,7.30
2022-11-24T08:08:58.524Z,7.28
2022-11-24T08:11:25.286Z,7.27
2022-11-24T08:13:54.551Z,7.33
2022-11-24T08:16:21.247Z,7.38
2022-11-24T08:18:52.827Z,7.42
2022-11-24T08:21:20.377Z,7.47
2022-11-24T08:23:47.214Z,7.53
2022-11-24T08:26:17.749Z,7.54
2022-11-24T08:28:45.628Z,7.54
2022-11-24T08:31:15.163Z,7.56
2022-11-24T08:33:45.472Z,7.60
2022-11-24T08:36:14.818Z,7.72
2022-11-24T08:38:41.849Z,7.87
2022-11-24T08:41:15.273Z,8.04
2022-11-24T08:43:42.255Z,8.10
2022-11-24T08:46:11.058Z,8.15
2022-11-24T08:48:38.089Z,8.21
2022-11-24T08:51:15.706Z,8.17
2022-11-24T08:53:43.423Z,8.26
2022-11-24T08:56:11.288Z,8.35
2022-11-24T08:58:38.615Z,8.42
2022-11-24T09:01:14.486Z,8.50
2022-11-24T09:03:46.610Z,8.53
2022-11-24T09:06:15.582Z,8.61
2022-11-24T09:08:42.697Z,8.68
2022-11-24T09:11:12.355Z,8.75
2022-11-24T09:13:39.656Z,8.83
2022-11-24T09:16:15.470Z,8.93
2022-11-24T09:18:45.145Z,8.87
2022-11-24T09:21:14.758Z,8.88
2022-11-24T09:23:41.742Z,8.71
2022-11-24T09:26:23.405Z,8.62
2022-11-24T09:28:50.262Z,8.59
2022-11-24T09:31:21.127Z,8.66
2022-11-24T09:33:49.072Z,8.72
2022-11-24T09:36:15.709Z,8.84
2022-11-24T09:38:42.544Z,9.11
2022-11-24T09:41:14.979Z,9.31
2022-11-24T09:43:46.327Z,9.42
2022-11-24T09:46:43.672Z,9.49
2022-11-24T09:49:17.784Z,9.60
2022-11-24T09:51:51.393Z,9.74
2022-11-24T09:54:26.448Z,9.85
2022-11-24T09:56:53.038Z,9.78
2022-11-24T09:59:25.155Z,9.73
2022-11-24T10:01:52.428Z,9.69
2022-11-24T10:04:32.041Z,9.65
2022-11-24T10:07:22.993Z,9.61
2022-11-24T10:09:58.814Z,9.58
2022-11-24T10:12:28.120Z,9.57
2022-11-24T10:15:04.677Z,9.37
2022-11-24T10:17:56.099Z,9.20
2022-11-24T10:20:48.471Z,9.11
2022-11-24T10:23:41.857Z,9.05
2022-11-24T10:26:19.014Z,8.93
2022-11-24T10:28:53.335Z,8.84
2022-11-24T10:31:41.825Z,8.80
2022-11-24T10:34:16.811Z,8.73
2022-11-24T10:36:58.338Z,8.73
2022-11-24T10:40:26.979Z,8.73
2022-11-24T10:42:58.197Z,8.79
2022-11-24T10:45:27.435Z,8.81
2022-11-24T10:47:53.935Z,8.82
2022-11-24T10:50:27.175Z,8.83
2022-11-24T10:53:13.877Z,8.84
2022-11-24T10:55:58.266Z,8.83
2022-11-24T10:58:38.924Z,8.82
2022-11-24T11:01:32.014Z,8.81
2022-11-24T11:04:01.475Z,8.79
2022-11-24T11:06:30.221Z,8.81
2022-11-24T11:09:09.278Z,8.88
2022-11-24T11:11:39.189Z,8.95
2022-11-24T11:14:12.866Z,8.99
2022-11-24T11:16:42.164Z,9.03
2022-11-24T11:20:01.707Z,9.02
2022-11-24T11:22:37.408Z,8.98
2022-11-24T11:25:07.285Z,8.96
2022-11-24T11:27:36.951Z,8.93
2022-11-24T11:36:15.582Z,9.01
2022-11-24T11:38:43.577Z,9.01
2022-11-24T11:41:21.680Z,8.95
2022-11-24T11:43:56.252Z,8.86
2022-11-24T11:46:26.504Z,8.73
2022-11-24T11:48:53.119Z,8.66
2022-11-24T11:51:29.856Z,8.75
2022-11-24T11:54:26.941Z,8.73
2022-11-24T11:57:47.761Z,8.64
2022-11-24T12:00:21.913Z,8.76
2022-11-24T12:02:53.095Z,8.80
2022-11-24T12:05:38.946Z,8.86
2022-11-24T12:08:21.026Z,8.90
2022-11-24T12:10:48.012Z,8.77
2022-11-24T12:13:41.976Z,8.64
2022-11-24T12:16:34.464Z,8.60
2022-11-24T12:19:13.039Z,8.58
2022-11-24T12:22:05.667Z,8.59
2022-11-24T12:24:45.113Z,8.61
2022-11-24T12:27:50.155Z,8.63
2022-11-24T12:30:18.855Z,8.64
2022-11-24T12:33:05.507Z,8.64
2022-11-24T12:35:58.832Z,8.78
2022-11-24T12:38:43.728Z,8.98
2022-11-24T12:41:40.298Z,9.08
2022-11-24T12:44:27.620Z,9.00
2022-11-24T12:47:10.961Z,8.86
2022-11-24T12:50:14.759Z,8.76
2022-11-24T12:52:58.500Z,8.69
2022-11-24T12:55:27.584Z,8.70
2022-11-24T12:58:09.350Z,8.69
2022-11-24T13:01:17.048Z,8.62
2022-11-24T13:04:11.589Z,8.65
2022-11-24T13:06:51.531Z,8.72
2022-11-24T13:09:18.055Z,8.76
2022-11-24T13:11:47.039Z,8.72
2022-11-24T13:14:33.370Z,8.63
2022-11-24T13:17:31.045Z,8.59
2022-11-24T13:20:20.360Z,8.57
2022-11-24T13:23:20.455Z,8.61
2022-11-24T13:26:31.080Z,8.67
2022-11-24T13:29:13.472Z,8.72
2022-11-24T13:31:51.280Z,8.72
2022-11-24T13:34:44.931Z,8.72
2022-11-24T13:37:26.467Z,8.72
2022-11-24T13:40:01.165Z,8.73
2022-11-24T13:42:41.768Z,8.70
2022-11-24T13:45:40.502Z,8.69
2022-11-24T13:48:19.882Z,8.71
2022-11-24T13:50:58.486Z,8.71
2022-11-24T13:53:33.388Z,8.71
2022-11-24T13:56:03.370Z,8.69
2022-11-24T13:58:37.513Z,8.72
2022-11-24T14:01:11.430Z,8.70
2022-11-24T14:04:28.727Z,8.67
2022-11-24T14:07:07.009Z,8.65
2022-11-24T14:09:52.594Z,8.64
2022-11-24T14:12:27.870Z,8.61
2022-11-24T14:14:57.138Z,8.63
2022-11-24T14:17:27.583Z,8.65
2022-11-24T14:19:56.445Z,8.63
2022-11-24T14:22:39.335Z,8.60
2022-11-24T14:25:06.447Z,8.55
2022-11-24T14:27:37.434Z,8.48
2022-11-24T14:30:25.015Z,8.38
2022-11-24T14:33:01.856Z,8.31
2022-11-24T14:35:33.841Z,8.23
2022-11-24T14:38:04.805Z,8.15
2022-11-24T14:40:54.376Z,8.11
2022-11-24T14:43:22.684Z,8.09
2022-11-24T14:45:57.251Z,8.01
2022-11-24T14:48:29.184Z,7.96
2022-11-24T14:51:05.348Z,7.89
2022-11-24T14:53:32.379Z,7.81
2022-11-24T14:56:31.719Z,7.78
2022-11-24T14:58:59.179Z,7.75
2022-11-24T15:01:28.669Z,7.74
2022-11-24T15:04:39.011Z,7.71
2022-11-24T15:07:13.383Z,7.68
2022-11-24T15:09:48.973Z,7.68
2022-11-24T15:12:34.727Z,7.68
2022-11-24T15:15:06.379Z,7.67
2022-11-24T15:17:34.106Z,7.67
2022-11-24T15:20:03.435Z,7.67
2022-11-24T15:22:44.745Z,7.67
2022-11-24T15:25:32.459Z,7.68
2022-11-24T15:27:59.957Z,7.65
2022-11-24T15:30:27.161Z,7.66
2022-11-24T15:32:58.324Z,7.66
2022-11-24T15:35:29.928Z,7.68
2022-11-24T15:37:57.680Z,7.68
2022-11-24T15:40:24.806Z,7.68
2022-11-24T15:42:55.857Z,7.68
2022-11-24T15:45:25.034Z,7.67
2022-11-24T15:47:51.923Z,7.62
2022-11-24T15:50:19.441Z,7.59
2022-11-24T15:52:47.428Z,7.56
2022-11-24T15:55:22.015Z,7.50
2022-11-24T15:57:49.225Z,7.44
2022-11-24T16:00:24.815Z,7.32
2022-11-24T16:02:51.323Z,7.22
2022-11-24T16:05:18.024Z,7.19
2022-11-24T16:07:45.023Z,7.14
2022-11-24T16:10:31.265Z,7.08
2022-11-24T16:12:57.831Z,7.00
2022-11-24T16:15:24.692Z,6.91
2022-11-24T16:17:51.273Z,6.85
2022-11-24T16:20:17.875Z,6.91
2022-11-24T16:22:44.741Z,6.99
2022-11-24T16:25:14.521Z,7.00
2022-11-24T16:27:41.190Z,6.96
2022-11-24T16:30:10.905Z,6.97
2022-11-24T16:32:37.418Z,6.99
2022-11-24T16:35:04.507Z,6.98
2022-11-24T16:37:34.608Z,7.01
2022-11-24T16:40:02.494Z,6.94
2022-11-24T16:42:29.412Z,6.90
2022-11-24T16:44:55.946Z,6.88
2022-11-24T16:47:25.702Z,6.93
2022-11-24T16:49:52.247Z,6.97
2022-11-24T16:52:18.994Z,7.01
2022-11-24T16:54:47.382Z,7.07
2022-11-24T16:57:15.313Z,7.11
2022-11-24T16:59:51.701Z,7.15
2022-11-24T17:02:18.928Z,7.18
2022-11-24T17:04:45.584Z,7.25
2022-11-24T17:07:13.817Z,7.28
2022-11-24T17:09:40.933Z,7.31
2022-11-24T17:12:07.717Z,7.29
2022-11-24T17:14:34.496Z,7.29
2022-11-24T17:17:01.311Z,7.28
2022-11-24T17:19:28.522Z,7.27
2022-11-24T17:21:55.032Z,7.26
2022-11-24T17:24:21.586Z,7.27
2022-11-24T17:26:50.897Z,7.28
2022-11-24T17:29:19.813Z,7.31
2022-11-24T17:31:46.406Z,7.33
2022-11-24T17:34:13.009Z,7.33
2022-11-24T17:36:45.933Z,7.35
2022-11-24T17:39:12.450Z,7.36
2022-11-24T17:41:39.025Z,7.33
2022-11-24T17:44:10.637Z,7.33
2022-11-24T17:46:37.604Z,7.30
2022-11-24T17:49:04.154Z,7.31
2022-11-24T17:51:30.754Z,7.33
2022-11-24T17:54:05.971Z,7.34
2022-11-24T17:56:47.055Z,7.34
2022-11-24T17:59:13.897Z,7.35
2022-11-24T18:01:40.502Z,7.35
2022-11-24T18:04:07.011Z,7.39
2022-11-24T18:06:34.180Z,7.39
2022-11-24T18:09:00.709Z,7.37
2022-11-24T18:11:31.702Z,7.40
2022-11-24T18:14:02.269Z,7.38
2022-11-24T18:16:34.166Z,7.41
2022-11-24T18:19:09.405Z,7.43
2022-11-24T18:21:41.283Z,7.43
2022-11-24T18:24:09.762Z,7.46
2022-11-24T18:26:37.639Z,7.47
2022-11-24T18:29:04.542Z,7.50
2022-11-24T18:31:32.243Z,7.50
2022-11-24T18:33:59.325Z,7.56
2022-11-24T18:36:29.905Z,7.55
2022-11-24T18:39:00.395Z,7.49
2022-11-24T18:41:27.135Z,7.48
2022-11-24T18:43:53.942Z,7.44
2022-11-24T18:46:20.506Z,7.38
2022-11-24T18:48:47.260Z,7.35
2022-11-24T18:51:17.658Z,7.35
2022-11-24T18:53:46.065Z,7.32
2022-11-24T18:56:15.664Z,7.31
2022-11-24T18:58:43.018Z,7.35
2022-11-24T19:01:15.634Z,7.38
2022-11-24T19:03:51.473Z,7.42
2022-11-24T19:06:28.666Z,7.38
2022-11-24T19:08:55.957Z,7.37
2022-11-24T19:11:33.862Z,7.36
2022-11-24T19:14:01.724Z,7.33
2022-11-24T19:16:28.258Z,7.36
2022-11-24T19:19:02.486Z,7.32
2022-11-24T19:21:31.603Z,7.29
2022-11-24T19:24:04.163Z,7.20
2022-11-24T19:26:31.824Z,7.18
2022-11-24T19:29:03.856Z,7.18
2022-11-24T19:31:30.361Z,7.21
2022-11-24T19:33:58.645Z,7.21
2022-11-24T19:36:26.272Z,7.12
2022-11-24T19:38:57.255Z,7.08
2022-11-24T19:41:27.100Z,7.12
2022-11-24T19:43:54.566Z,7.04
2022-11-24T19:46:26.197Z,7.09
2022-11-24T19:48:59.617Z,7.06
2022-11-24T19:51:30.841Z,7.06
2022-11-24T19:53:57.593Z,7.12
2022-11-24T19:56:27.047Z,7.12
2022-11-24T19:58:54.543Z,7.11
2022-11-24T20:01:24.768Z,7.15
2022-11-24T20:04:03.692Z,7.17
2022-11-24T20:06:36.808Z,7.18
2022-11-24T20:09:06.181Z,7.21
2022-11-24T20:11:32.747Z,7.20
2022-11-24T20:14:03.102Z,7.17
2022-11-24T20:16:31.638Z,7.15
2022-11-24T20:19:05.771Z,7.12
2022-11-24T20:21:33.146Z,7.07
2022-11-24T20:24:03.804Z,7.07
2022-11-24T20:26:40.108Z,7.06
2022-11-24T20:29:09.824Z,7.03
2022-11-24T20:31:38.398Z,7.03
2022-11-24T20:34:07.244Z,7.00
2022-11-24T20:36:35.415Z,7.04
2022-11-24T20:39:05.597Z,7.07
2022-11-24T20:41:34.750Z,7.08
2022-11-24T20:44:08.133Z,7.04
2022-11-24T20:46:40.345Z,7.03
2022-11-24T20:49:08.749Z,7.01
2022-11-24T20:51:39.023Z,6.95
2022-11-24T20:54:10.939Z,6.94
2022-11-24T20:56:40.890Z,6.90
2022-11-24T20:59:09.094Z,6.90
2022-11-24T21:01:38.657Z,6.87
2022-11-24T21:04:07.953Z,6.82
2022-11-24T21:06:35.733Z,6.76
2022-11-24T21:09:04.183Z,6.69
2022-11-24T21:11:31.674Z,6.62
2022-11-24T21:13:58.644Z,6.53
2022-11-24T21:16:30.140Z,6.36
2022-11-24T21:19:12.579Z,6.34
2022-11-24T21:21:40.115Z,6.36
2022-11-24T21:24:12.547Z,6.33
2022-11-24T21:26:40.276Z,6.33
2022-11-24T21:29:07.420Z,6.29
2022-11-24T21:31:38.299Z,6.18
2022-11-24T21:34:06.146Z,6.26
2022-11-24T21:36:34.908Z,6.21
2022-11-24T21:39:02.683Z,6.24
2022-11-24T21:41:32.137Z,6.25
2022-11-24T21:43:59.158Z,6.16
2022-11-24T21:46:28.181Z,6.26
2022-11-24T21:48:54.717Z,6.28
2022-11-24T21:51:21.269Z,6.24
2022-11-24T21:53:48.075Z,6.38
2022-11-24T21:56:17.590Z,6.56
2022-11-24T21:58:48.108Z,6.64
2022-11-24T22:01:17.663Z,6.70
2022-11-24T22:03:45.716Z,6.72
2022-11-24T22:06:12.959Z,6.64
2022-11-24T22:08:39.512Z,6.56
2022-11-24T22:11:11.321Z,6.64
2022-11-24T22:13:37.829Z,6.69
2022-11-24T22:16:10.069Z,6.73
2022-11-24T22:18:38.847Z,6.81
2022-11-24T22:21:07.396Z,6.84
2022-11-24T22:23:35.924Z,6.85
2022-11-24T22:26:07.536Z,6.88
2022-11-24T22:28:37.332Z,6.89
2022-11-24T22:31:18.201Z,6.94
2022-11-24T22:33:45.331Z,6.89
2022-11-24T22:36:13.891Z,6.87
2022-11-24T22:38:41.112Z,6.79
2022-11-24T22:41:16.420Z,6.72
2022-11-24T22:43:44.490Z,6.77
2022-11-24T22:46:25.360Z,6.69
2022-11-24T22:48:53.264Z,6.60
2022-11-24T22:51:22.343Z,6.60
2022-11-24T22:53:58.292Z,6.55
2022-11-24T22:56:28.195Z,6.44
2022-11-24T22:59:02.005Z,6.30
2022-11-24T23:01:29.845Z,6.29
2022-11-24T23:03:56.994Z,6.29
2022-11-24T23:06:26.189Z,6.27
2022-11-24T23:08:52.968Z,6.24
2022-11-24T23:11:27.335Z,6.17
2022-11-24T23:14:00.470Z,6.07
2022-11-24T23:16:34.279Z,6.03
2022-11-24T23:19:03.880Z,5.99
2022-11-24T23:21:32.409Z,6.00
2022-11-24T23:24:00.994Z,5.97
2022-11-24T23:26:39.106Z,5.96
2022-11-24T23:29:07.185Z,5.96
2022-11-24T23:31:33.746Z,6.01
2022-11-24T23:34:02.927Z,6.03
2022-11-24T23:36:30.227Z,6.00
2022-11-24T23:39:00.832Z,5.99
2022-11-24T23:41:30.069Z,5.99
2022-11-24T23:43:56.558Z,5.95
2022-11-24T23:46:24.923Z,5.97
2022-11-24T23:48:53.330Z,6.07
2022-11-24T23:51:25.135Z,6.15
2022-11-24T23:53:52.289Z,6.15
2022-11-24T23:56:39.174Z,6.13
2022-11-24T23:59:05.671Z,6.12
